Repülésmeteorológia

  • METAR LHSM 221645Z 35001KT 9999 TSRA SCT020CB SCT083 21/17 Q1015
  • METAR LHSM 221615Z 08003KT 9999 TS BKN020CB 22/16 Q1014 TEMPO
  • METAR LHSM 221515Z 09003KT 9999 FEW030CB FEW034TCU SCT200 24/16
  • METAR LHSM 221445Z 12004KT 9999 FEW034TCU BKN200 24/15 Q1015 NOSIG=
  • METAR LHSM 221415Z 13004KT 9999 FEW030 SCT200 24/16 Q1015 NOSIG=

  • TAF LHSM 221415Z 2215/2224 VRB03KT 9999 SCT040 BKN200
  • TAF LHSM 221115Z 2212/2221 08006KT 9999 SCT030 OVC200
  • TAF LHSM 220815Z 2209/2218 10007KT 9999 SCT033 TEMPO 2210/2218
  • TAF LHSM 220515Z 2206/2215 VRB02KT CAVOK
  • TAF LHSM 211115Z 2112/2121 07007KT 9999 FEW045=